LFOK 221430Z AUTO 23017KT CAVOK 11/06 Q1027 BECMG BKN013

ElémentsDécodage
LFOK Station météo située sur l'aérodrome de CHALONS Vatry
221430Z émis le 22 du mois à 14h30 UTC
AUTO Bulletin édité par un automate
23017KT vent du 230°, 17 noeuds
CAVOK Ceiling And Visibility OK
- Visibilité de 10 Km ou plus
- Pas de nuage au-dessous de 1500m ou au-dessous de l'altitude minimale du secteur la plus élevée (si>1500m) et absence de CB
- pas de temps présent significatif
11/06 température 11°C, point de rosée 06°C
 soit une humidité relative de 71%
Q1027 la pression au niveau de la mer (QNH) est de 1027 hPa
BECMG fluctuation du temps prévue
BKN013 nuages morcelés (5/8 à 7/8) à 1300 pieds